createdAt,value
2018-02-14T00:00:15.345Z,91.80
2018-02-14T00:01:17.914Z,91.50
2018-02-14T00:02:20.445Z,91.50
2018-02-14T00:03:22.968Z,91.40
2018-02-14T00:04:25.495Z,91.40
2018-02-14T00:05:28.799Z,91.40
2018-02-14T00:06:31.356Z,91.40
2018-02-14T00:07:34.639Z,91.40
2018-02-14T00:08:37.966Z,91.30
2018-02-14T00:09:40.485Z,91.30
2018-02-14T00:10:43.767Z,91.30
2018-02-14T00:11:47.054Z,91.40
2018-02-14T00:12:50.374Z,91.40
2018-02-14T00:13:52.951Z,91.30
2018-02-14T00:14:55.476Z,91.50
2018-02-14T00:15:58.759Z,91.50
2018-02-14T00:17:02.083Z,91.40
2018-02-14T00:18:04.597Z,91.40
2018-02-14T00:19:07.918Z,91.70
2018-02-14T00:20:10.440Z,91.70
2018-02-14T00:21:13.733Z,92.00
2018-02-14T00:22:17.065Z,91.40
2018-02-14T00:23:19.588Z,91.40
2018-02-14T00:24:22.867Z,91.20
2018-02-14T00:25:26.160Z,91.40
2018-02-14T00:26:29.461Z,91.30
2018-02-14T00:27:32.020Z,91.30
2018-02-14T00:28:34.542Z,91.30
2018-02-14T00:29:37.061Z,91.40
2018-02-14T00:30:39.593Z,91.40
2018-02-14T00:31:42.889Z,91.70
2018-02-14T00:32:46.222Z,91.80
2018-02-14T00:33:48.748Z,91.80
2018-02-14T00:34:51.271Z,92.00
2018-02-14T00:35:53.834Z,92.00
2018-02-14T00:36:56.366Z,91.90
2018-02-14T00:37:58.925Z,91.90
2018-02-14T00:39:01.469Z,92.00
2018-02-14T00:40:04.760Z,92.00
2018-02-14T00:41:07.285Z,92.00
2018-02-14T00:42:10.022Z,91.90
2018-02-14T00:43:12.549Z,91.80
2018-02-14T00:44:15.860Z,91.60
2018-02-14T00:45:18.414Z,91.50
2018-02-14T00:46:20.942Z,91.70
2018-02-14T00:47:23.469Z,91.70
2018-02-14T00:48:25.994Z,91.70
2018-02-14T00:49:29.331Z,91.60
2018-02-14T00:50:31.853Z,91.60
2018-02-14T00:51:34.387Z,91.70
2018-02-14T00:52:36.904Z,91.60
2018-02-14T00:53:39.416Z,91.70
2018-02-14T00:54:42.070Z,91.70
2018-02-14T00:55:44.593Z,91.60
2018-02-14T00:56:47.156Z,91.50
2018-02-14T00:57:49.685Z,91.40
2018-02-14T00:58:52.240Z,91.40
2018-02-14T00:59:54.796Z,91.30
2018-02-14T01:00:58.146Z,91.30
2018-02-14T01:02:00.689Z,91.30
2018-02-14T01:03:03.984Z,91.40
2018-02-14T01:04:07.283Z,91.30
2018-02-14T01:05:09.831Z,91.30
2018-02-14T01:06:13.153Z,91.30
2018-02-14T01:07:15.673Z,91.30
2018-02-14T01:08:18.196Z,91.30
2018-02-14T01:09:20.720Z,91.20
2018-02-14T01:10:24.038Z,91.10
2018-02-14T01:11:26.592Z,91.10
2018-02-14T01:12:29.116Z,91.10
2018-02-14T01:13:31.645Z,90.90
2018-02-14T01:14:34.168Z,90.80
2018-02-14T01:15:37.455Z,91.30
2018-02-14T01:16:40.020Z,91.00
2018-02-14T01:17:42.565Z,91.00
2018-02-14T01:18:48.032Z,91.10
2018-02-14T01:19:56.148Z,91.20
2018-02-14T01:20:58.675Z,91.30
2018-02-14T01:22:01.993Z,91.40
2018-02-14T01:23:04.541Z,91.40
2018-02-14T01:24:07.816Z,91.40
2018-02-14T01:25:11.140Z,91.50
2018-02-14T01:26:13.660Z,91.50
2018-02-14T01:27:16.941Z,91.80
2018-02-14T01:28:20.240Z,92.00
2018-02-14T01:29:22.783Z,91.90
2018-02-14T01:30:25.352Z,92.10
2018-02-14T01:31:28.648Z,92.50
2018-02-14T01:32:31.934Z,92.30
2018-02-14T01:33:35.211Z,92.20
2018-02-14T01:34:38.537Z,92.20
2018-02-14T01:35:41.097Z,92.20
2018-02-14T01:36:43.703Z,92.10
2018-02-14T01:37:46.238Z,92.10
2018-02-14T01:38:48.802Z,92.20
2018-02-14T01:39:51.325Z,92.00
2018-02-14T01:40:54.617Z,91.80
2018-02-14T01:41:57.908Z,92.00
2018-02-14T01:43:00.481Z,92.10
2018-02-14T01:44:03.003Z,92.30
2018-02-14T01:45:05.532Z,92.20
2018-02-14T01:46:08.060Z,92.30
2018-02-14T01:47:11.341Z,92.10
2018-02-14T01:48:14.673Z,92.10
2018-02-14T01:49:17.197Z,92.10
2018-02-14T01:50:20.484Z,92.10
2018-02-14T01:51:23.775Z,92.00
2018-02-14T01:52:26.309Z,92.00
2018-02-14T01:53:28.870Z,92.00
2018-02-14T01:54:31.433Z,91.90
2018-02-14T01:55:33.988Z,92.00
2018-02-14T01:56:36.503Z,91.90
2018-02-14T01:57:39.794Z,92.30
2018-02-14T01:58:42.366Z,92.30
2018-02-14T01:59:45.795Z,92.40
2018-02-14T02:00:48.318Z,92.40
2018-02-14T02:01:50.842Z,92.40
2018-02-14T02:02:53.365Z,92.50
2018-02-14T02:03:55.924Z,92.50
2018-02-14T02:04:58.469Z,92.40
2018-02-14T02:06:01.762Z,92.40
2018-02-14T02:07:04.294Z,92.40
2018-02-14T02:08:06.822Z,92.40
2018-02-14T02:09:09.349Z,92.10
2018-02-14T02:10:12.697Z,91.80
2018-02-14T02:11:15.218Z,91.80
2018-02-14T02:12:17.742Z,91.90
2018-02-14T02:13:21.141Z,91.80
2018-02-14T02:14:24.426Z,91.80
2018-02-14T02:15:27.749Z,91.90
2018-02-14T02:16:30.265Z,91.90
2018-02-14T02:17:32.785Z,91.90
2018-02-14T02:18:35.306Z,91.80
2018-02-14T02:19:38.593Z,91.80
2018-02-14T02:20:42.014Z,91.70
2018-02-14T02:21:44.533Z,91.70
2018-02-14T02:22:47.060Z,91.70
2018-02-14T02:23:49.578Z,91.70
2018-02-14T02:24:52.867Z,91.70
2018-02-14T02:25:56.904Z,91.70
2018-02-14T02:26:59.433Z,91.70
2018-02-14T02:28:02.718Z,91.80
2018-02-14T02:29:06.001Z,91.90
2018-02-14T02:30:09.290Z,91.80
2018-02-14T02:31:12.606Z,91.70
2018-02-14T02:32:15.127Z,91.70
2018-02-14T02:33:18.415Z,91.90
2018-02-14T02:34:21.700Z,91.90
2018-02-14T02:35:25.018Z,91.80
2018-02-14T02:36:27.546Z,91.80
2018-02-14T02:37:30.847Z,91.90
2018-02-14T02:38:33.369Z,91.90
2018-02-14T02:39:47.748Z,91.90
2018-02-14T02:40:50.311Z,91.90
2018-02-14T02:41:53.592Z,91.70
2018-02-14T02:42:56.880Z,91.60
2018-02-14T02:44:00.167Z,91.40
2018-02-14T02:45:03.489Z,91.40
2018-02-14T02:46:06.057Z,91.40
2018-02-14T02:47:08.588Z,91.40
2018-02-14T02:48:11.112Z,91.40
2018-02-14T02:49:13.630Z,91.30
2018-02-14T02:50:16.189Z,91.40
2018-02-14T02:51:18.712Z,91.30
2018-02-14T02:52:21.384Z,91.40
2018-02-14T02:53:23.942Z,91.20
2018-02-14T02:54:26.502Z,91.10
2018-02-14T02:55:29.024Z,91.20
2018-02-14T02:56:31.549Z,91.10
2018-02-14T02:57:34.097Z,91.00
2018-02-14T02:58:36.625Z,91.00
2018-02-14T02:59:39.172Z,91.10
2018-02-14T03:00:42.510Z,91.20
2018-02-14T03:01:45.034Z,91.10
2018-02-14T03:02:48.361Z,91.10
2018-02-14T03:03:50.881Z,91.00
2018-02-14T03:04:54.203Z,91.10
2018-02-14T03:05:56.720Z,91.00
2018-02-14T03:07:00.003Z,91.10
2018-02-14T03:08:03.295Z,91.10
2018-02-14T03:09:06.589Z,91.10
2018-02-14T03:10:09.149Z,91.10
2018-02-14T03:11:12.437Z,91.10
2018-02-14T03:12:15.761Z,91.20
2018-02-14T03:13:18.282Z,91.20
2018-02-14T03:14:21.610Z,91.40
2018-02-14T03:15:24.124Z,91.40
2018-02-14T03:16:27.449Z,91.50
2018-02-14T03:17:30.007Z,91.50
2018-02-14T03:18:32.530Z,91.40
2018-02-14T03:19:35.053Z,91.40
2018-02-14T03:20:37.617Z,91.30
2018-02-14T03:21:40.137Z,91.50
2018-02-14T03:22:43.448Z,91.40
2018-02-14T03:23:46.074Z,91.40
2018-02-14T03:24:48.599Z,91.50
2018-02-14T03:25:51.116Z,91.60
2018-02-14T03:26:53.633Z,91.40
2018-02-14T03:27:56.157Z,91.60
2018-02-14T03:28:59.469Z,91.40
2018-02-14T03:30:01.986Z,91.40
2018-02-14T03:31:04.548Z,91.50
2018-02-14T03:32:07.068Z,91.50
2018-02-14T03:33:09.593Z,91.50
2018-02-14T03:34:12.116Z,91.50
2018-02-14T03:35:14.641Z,91.60
2018-02-14T03:36:17.976Z,91.30
2018-02-14T03:37:20.506Z,91.30
2018-02-14T03:38:23.094Z,91.30
2018-02-14T03:39:25.616Z,91.30
2018-02-14T03:40:28.905Z,91.30
2018-02-14T03:41:32.242Z,91.20
2018-02-14T03:42:34.776Z,91.20
2018-02-14T03:43:37.299Z,91.30
2018-02-14T03:44:39.817Z,91.50
2018-02-14T03:45:42.345Z,91.90
2018-02-14T03:46:45.717Z,92.20
2018-02-14T03:47:48.239Z,92.50
2018-02-14T03:48:50.913Z,92.40
2018-02-14T03:49:53.445Z,92.50
2018-02-14T03:50:56.729Z,92.40
2018-02-14T03:52:00.047Z,92.40
2018-02-14T03:53:02.616Z,92.40
2018-02-14T03:54:05.156Z,92.40
2018-02-14T03:55:07.713Z,92.20
2018-02-14T03:56:11.001Z,91.90
2018-02-14T03:57:13.530Z,91.80
2018-02-14T03:58:16.057Z,91.70
2018-02-14T03:59:18.576Z,91.80
2018-02-14T04:00:21.172Z,91.80
2018-02-14T04:01:23.700Z,91.80
2018-02-14T04:02:26.218Z,91.80
2018-02-14T04:03:28.733Z,91.90
2018-02-14T04:04:31.259Z,92.00
2018-02-14T04:05:33.817Z,92.10
2018-02-14T04:06:36.340Z,92.20
2018-02-14T04:07:38.860Z,92.30
2018-02-14T04:08:41.380Z,92.40
2018-02-14T04:09:44.700Z,92.10
2018-02-14T04:10:47.333Z,92.10
2018-02-14T04:11:50.644Z,91.90
2018-02-14T04:12:53.180Z,91.90
2018-02-14T04:13:56.469Z,91.80
2018-02-14T04:14:59.794Z,91.90
2018-02-14T04:16:02.359Z,91.90
2018-02-14T04:17:04.876Z,91.90
2018-02-14T04:18:07.402Z,91.60
2018-02-14T04:19:09.928Z,91.60
2018-02-14T04:20:12.483Z,91.70
2018-02-14T04:21:15.769Z,92.00
2018-02-14T04:22:19.052Z,91.90
2018-02-14T04:23:22.333Z,91.80
2018-02-14T04:24:25.653Z,91.60
2018-02-14T04:25:28.178Z,91.60
2018-02-14T04:26:30.760Z,91.70
2018-02-14T04:27:34.057Z,92.00
2018-02-14T04:28:36.577Z,92.00
2018-02-14T04:29:39.097Z,92.20
2018-02-14T04:30:41.636Z,92.10
2018-02-14T04:31:44.200Z,92.10
2018-02-14T04:32:47.482Z,92.00
2018-02-14T04:33:50.770Z,92.10
2018-02-14T04:34:54.056Z,92.00
2018-02-14T04:35:57.365Z,92.00
2018-02-14T04:36:59.928Z,92.00
2018-02-14T04:38:02.448Z,92.00
2018-02-14T04:39:06.472Z,92.10
2018-02-14T04:40:09.795Z,92.00
2018-02-14T04:41:12.321Z,92.00
2018-02-14T04:42:15.629Z,92.30
2018-02-14T04:43:18.154Z,92.20
2018-02-14T04:44:20.674Z,92.30
2018-02-14T04:45:23.250Z,92.10
2018-02-14T04:46:25.771Z,92.00
2018-02-14T04:47:29.052Z,91.90
2018-02-14T04:48:32.348Z,91.70
2018-02-14T04:49:34.859Z,91.70
2018-02-14T04:50:37.422Z,91.70
2018-02-14T04:51:40.749Z,91.50
2018-02-14T04:52:44.037Z,91.60
2018-02-14T04:53:47.323Z,91.50
2018-02-14T04:54:50.616Z,91.50
2018-02-14T04:55:53.136Z,91.50
2018-02-14T04:56:57.210Z,91.70
2018-02-14T04:57:59.744Z,91.70
2018-02-14T04:59:03.037Z,92.00
2018-02-14T05:00:05.559Z,92.00
2018-02-14T05:01:08.076Z,92.10
2018-02-14T05:02:10.624Z,92.00
2018-02-14T05:03:13.904Z,91.90
2018-02-14T05:04:17.192Z,91.90
2018-02-14T05:05:20.510Z,91.70
2018-02-14T05:06:23.033Z,91.70
2018-02-14T05:07:26.348Z,91.90
2018-02-14T05:08:28.865Z,91.80
2018-02-14T05:09:31.390Z,92.00
2018-02-14T05:10:33.922Z,92.00
2018-02-14T05:11:37.213Z,92.20
2018-02-14T05:12:40.539Z,92.20
2018-02-14T05:13:43.097Z,92.20
2018-02-14T05:14:45.626Z,92.30
2018-02-14T05:15:48.923Z,92.40
2018-02-14T05:16:51.444Z,92.40
2018-02-14T05:17:54.005Z,92.10
2018-02-14T05:18:56.554Z,92.20
2018-02-14T05:19:59.077Z,92.10
2018-02-14T05:21:01.599Z,92.10
2018-02-14T05:22:04.172Z,92.00
2018-02-14T05:23:06.692Z,91.90
2018-02-14T05:24:09.256Z,92.10
2018-02-14T05:25:11.782Z,91.60
2018-02-14T05:26:14.309Z,91.70
2018-02-14T05:27:16.838Z,91.60
2018-02-14T05:28:20.149Z,91.50
2018-02-14T05:29:22.698Z,91.50
2018-02-14T05:30:25.257Z,91.60
2018-02-14T05:31:27.793Z,91.60
2018-02-14T05:32:31.821Z,91.50
2018-02-14T05:33:35.112Z,91.50
2018-02-14T05:34:37.632Z,91.50
2018-02-14T05:35:40.200Z,91.40
2018-02-14T05:36:42.727Z,91.50
2018-02-14T05:37:45.245Z,91.60
2018-02-14T05:38:47.773Z,91.80
2018-02-14T05:39:50.298Z,91.90
2018-02-14T05:40:53.618Z,91.80
2018-02-14T05:41:56.145Z,91.80
2018-02-14T05:42:59.450Z,92.00
2018-02-14T05:44:02.000Z,92.00
2018-02-14T05:45:05.409Z,91.90
2018-02-14T05:46:07.936Z,91.90
2018-02-14T05:47:10.463Z,91.90
2018-02-14T05:48:12.988Z,92.30
2018-02-14T05:49:16.268Z,91.90
2018-02-14T05:50:19.592Z,91.80
2018-02-14T05:51:22.155Z,91.80
2018-02-14T05:52:24.673Z,91.90
2018-02-14T05:53:27.960Z,91.70
2018-02-14T05:54:31.264Z,91.70
2018-02-14T05:55:33.784Z,91.70
2018-02-14T05:56:36.350Z,91.40
2018-02-14T05:57:38.877Z,91.20
2018-02-14T05:58:41.405Z,91.50
2018-02-14T05:59:44.728Z,91.60
2018-02-14T06:00:47.250Z,91.60
2018-02-14T06:01:49.778Z,91.50
2018-02-14T06:02:52.297Z,91.60
2018-02-14T06:03:54.850Z,91.80
2018-02-14T06:04:57.418Z,92.00
2018-02-14T06:06:00.759Z,92.20
2018-02-14T06:07:03.276Z,92.10
2018-02-14T06:08:06.577Z,92.10
2018-02-14T06:09:09.104Z,92.10
2018-02-14T06:10:11.618Z,91.90
2018-02-14T06:11:14.184Z,92.00
2018-02-14T06:12:16.709Z,92.10
2018-02-14T06:13:19.238Z,92.00
2018-02-14T06:14:21.780Z,92.10
2018-02-14T06:15:24.305Z,92.00
2018-02-14T06:16:26.859Z,91.90
2018-02-14T06:17:29.388Z,91.90
2018-02-14T06:18:31.995Z,91.60
2018-02-14T06:19:34.525Z,91.70
2018-02-14T06:20:37.049Z,91.70
2018-02-14T06:21:40.349Z,91.70
2018-02-14T06:22:42.876Z,91.70
2018-02-14T06:23:45.440Z,91.60
2018-02-14T06:24:47.970Z,91.40
2018-02-14T06:25:50.489Z,91.40
2018-02-14T06:26:53.170Z,91.60
2018-02-14T06:27:56.469Z,91.50
2018-02-14T06:28:59.049Z,91.40
2018-02-14T06:30:01.565Z,91.40
2018-02-14T06:31:04.088Z,91.50
2018-02-14T06:32:06.621Z,91.60
2018-02-14T06:33:09.944Z,91.60
2018-02-14T06:34:12.470Z,91.60
2018-02-14T06:35:15.757Z,91.40
2018-02-14T06:36:19.108Z,91.40
2018-02-14T06:37:21.633Z,91.40
2018-02-14T06:38:24.158Z,91.40
2018-02-14T06:39:26.689Z,91.50
2018-02-14T06:40:29.217Z,91.40
2018-02-14T06:41:31.776Z,91.50
2018-02-14T06:42:35.077Z,91.30
2018-02-14T06:43:37.604Z,91.30
2018-02-14T06:44:40.166Z,91.40
2018-02-14T06:45:42.697Z,91.50
2018-02-14T06:46:45.236Z,91.70
2018-02-14T06:47:47.756Z,91.70
2018-02-14T06:48:50.282Z,91.70
2018-02-14T06:49:52.838Z,91.60
2018-02-14T06:50:55.377Z,91.80
2018-02-14T06:51:58.668Z,91.90
2018-02-14T06:53:01.965Z,91.90
2018-02-14T06:54:04.537Z,91.80
2018-02-14T06:55:07.065Z,91.60
2018-02-14T06:56:09.588Z,91.60
2018-02-14T06:57:12.117Z,91.80
2018-02-14T06:58:15.413Z,92.30
2018-02-14T06:59:17.964Z,92.30
2018-02-14T07:00:21.293Z,92.50
2018-02-14T07:01:23.814Z,92.50
2018-02-14T07:02:27.100Z,92.50
2018-02-14T07:03:30.390Z,92.50
2018-02-14T07:04:33.756Z,92.50
2018-02-14T07:05:36.313Z,92.60
2018-02-14T07:06:38.835Z,92.70
2018-02-14T07:07:41.367Z,92.50
2018-02-14T07:08:44.659Z,92.40
2018-02-14T07:09:47.196Z,92.40
2018-02-14T07:10:49.767Z,92.20
2018-02-14T07:11:52.296Z,92.20
2018-02-14T07:12:54.854Z,92.00
2018-02-14T07:13:57.382Z,91.80
2018-02-14T07:15:00.669Z,91.70
2018-02-14T07:16:03.961Z,91.60
2018-02-14T07:17:06.502Z,91.50
2018-02-14T07:18:09.087Z,91.50
2018-02-14T07:19:12.372Z,91.80
2018-02-14T07:20:15.648Z,91.60
2018-02-14T07:21:18.937Z,91.60
2018-02-14T07:22:22.216Z,91.70
2018-02-14T07:23:31.112Z,91.50
2018-02-14T07:24:33.635Z,91.50
2018-02-14T07:25:36.166Z,91.60
2018-02-14T07:26:39.483Z,92.10
2018-02-14T07:27:42.005Z,92.10
2018-02-14T07:28:45.326Z,91.60
2018-02-14T07:29:47.848Z,91.60
2018-02-14T07:30:50.377Z,91.80
2018-02-14T07:31:52.900Z,91.70
2018-02-14T07:32:56.413Z,91.60
2018-02-14T07:33:58.981Z,91.60
2018-02-14T07:35:01.498Z,91.50
2018-02-14T07:36:04.112Z,91.40
2018-02-14T07:37:06.643Z,91.40
2018-02-14T07:38:09.937Z,91.40
2018-02-14T07:39:13.260Z,91.20
2018-02-14T07:40:15.789Z,91.20
2018-02-14T07:41:19.100Z,91.50
2018-02-14T07:42:21.645Z,91.50
2018-02-14T07:43:24.165Z,91.60
2018-02-14T07:44:26.684Z,91.80
2018-02-14T07:45:29.208Z,92.00
2018-02-14T07:46:32.555Z,92.30
2018-02-14T07:47:35.081Z,92.30
2018-02-14T07:48:38.402Z,92.30
2018-02-14T07:49:40.971Z,92.20
2018-02-14T07:50:43.497Z,92.10
2018-02-14T07:51:46.789Z,92.10
2018-02-14T07:52:50.126Z,92.10
2018-02-14T07:53:52.635Z,92.10
2018-02-14T07:54:55.962Z,92.00
2018-02-14T07:55:58.482Z,91.90
2018-02-14T07:57:01.776Z,91.90
2018-02-14T07:58:05.111Z,92.00
2018-02-14T07:59:07.696Z,92.00
2018-02-14T08:00:10.213Z,92.00
2018-02-14T08:01:12.736Z,92.00
2018-02-14T08:02:15.261Z,92.00
2018-02-14T08:03:17.777Z,92.20
2018-02-14T08:04:21.120Z,92.00
2018-02-14T08:05:23.649Z,92.00
2018-02-14T08:06:26.173Z,91.90
2018-02-14T08:07:28.704Z,92.00
2018-02-14T08:08:31.229Z,92.00
2018-02-14T08:09:34.549Z,91.90
2018-02-14T08:10:37.124Z,91.80
2018-02-14T08:11:39.681Z,91.90
2018-02-14T08:12:42.232Z,91.90
2018-02-14T08:13:44.752Z,91.80
2018-02-14T08:14:47.313Z,91.70
2018-02-14T08:15:49.841Z,91.50
2018-02-14T08:16:52.356Z,91.70
2018-02-14T08:17:54.913Z,91.70
2018-02-14T08:18:57.446Z,91.70
2018-02-14T08:19:59.973Z,91.80
2018-02-14T08:21:03.296Z,91.80
2018-02-14T08:22:05.832Z,91.80
2018-02-14T08:23:09.116Z,91.50
2018-02-14T08:24:12.404Z,91.70
2018-02-14T08:25:15.704Z,91.70
2018-02-14T08:26:18.256Z,91.70
2018-02-14T08:27:21.543Z,92.00
2018-02-14T08:28:24.064Z,91.90
2018-02-14T08:29:26.590Z,91.80
2018-02-14T08:30:29.113Z,92.00
2018-02-14T08:31:31.673Z,92.30
2018-02-14T08:32:34.193Z,92.40
2018-02-14T08:33:36.717Z,92.10
2018-02-14T08:34:40.018Z,92.00
2018-02-14T08:35:43.342Z,91.80
2018-02-14T08:36:45.860Z,91.80
2018-02-14T08:37:49.151Z,91.80
2018-02-14T08:38:52.440Z,91.80
2018-02-14T08:39:54.973Z,91.80
2018-02-14T08:40:57.536Z,91.80
2018-02-14T08:42:00.062Z,91.70
2018-02-14T08:43:02.581Z,91.70
2018-02-14T08:44:05.101Z,91.90
2018-02-14T08:45:07.632Z,92.00
2018-02-14T08:46:10.192Z,92.00
2018-02-14T08:47:13.486Z,91.70
2018-02-14T08:48:16.022Z,91.60
2018-02-14T08:49:18.552Z,91.60
2018-02-14T08:50:21.106Z,91.40
2018-02-14T08:51:23.665Z,91.70
2018-02-14T08:52:26.185Z,91.40
2018-02-14T08:53:28.707Z,91.10
2018-02-14T08:54:31.295Z,90.80
2018-02-14T08:55:33.822Z,90.70
2018-02-14T08:56:36.346Z,90.50
2018-02-14T08:57:38.875Z,90.70
2018-02-14T08:58:41.399Z,90.50
2018-02-14T08:59:44.740Z,90.50
2018-02-14T09:00:47.264Z,90.50
2018-02-14T09:01:49.792Z,90.50
2018-02-14T09:02:52.320Z,90.50
2018-02-14T09:03:54.835Z,90.50
2018-02-14T09:04:57.398Z,90.60
2018-02-14T09:05:59.957Z,90.40
2018-02-14T09:07:02.476Z,90.70
2018-02-14T09:08:05.065Z,90.80
2018-02-14T09:09:07.601Z,90.50
2018-02-14T09:10:10.121Z,90.30
2018-02-14T09:11:12.641Z,90.20
2018-02-14T09:12:15.165Z,90.20
2018-02-14T09:13:17.724Z,90.20
2018-02-14T09:14:20.245Z,90.30
2018-02-14T09:15:22.769Z,90.30
2018-02-14T09:16:26.060Z,90.30
2018-02-14T09:17:29.348Z,90.50
2018-02-14T09:18:32.672Z,90.00
2018-02-14T09:19:35.197Z,90.00
2018-02-14T09:20:38.493Z,89.60
2018-02-14T09:21:41.052Z,89.50
2018-02-14T09:22:44.335Z,89.30
2018-02-14T09:23:47.658Z,89.20
2018-02-14T09:24:50.189Z,89.10
2018-02-14T09:25:53.483Z,90.00
2018-02-14T09:26:55.999Z,90.00
2018-02-14T09:27:58.523Z,89.70
2018-02-14T09:29:01.077Z,89.80
2018-02-14T09:30:03.601Z,90.00
2018-02-14T09:31:06.161Z,90.10
2018-02-14T09:32:08.683Z,90.10
2018-02-14T09:33:11.205Z,89.30
2018-02-14T09:34:13.731Z,88.80
2018-02-14T09:35:16.289Z,88.50
2018-02-14T09:36:18.820Z,88.50
2018-02-14T09:37:22.149Z,88.40
2018-02-14T09:38:24.677Z,88.30
2018-02-14T09:39:27.965Z,89.80
2018-02-14T09:40:31.248Z,89.30
2018-02-14T09:41:33.812Z,89.10
2018-02-14T09:42:37.124Z,88.60
2018-02-14T09:43:39.639Z,89.30
2018-02-14T09:44:42.284Z,88.60
2018-02-14T09:45:44.814Z,88.00
2018-02-14T09:46:47.385Z,89.00
2018-02-14T09:47:49.913Z,88.40
2018-02-14T09:48:52.440Z,87.60
2018-02-14T09:49:54.974Z,87.20
2018-02-14T09:50:57.501Z,87.40
2018-02-14T09:52:00.076Z,87.60
2018-02-14T09:53:02.615Z,86.80
2018-02-14T09:54:05.145Z,86.40
2018-02-14T09:55:07.670Z,85.70
2018-02-14T09:56:10.199Z,85.90
2018-02-14T09:57:12.773Z,86.40
2018-02-14T09:58:15.401Z,85.50
2018-02-14T09:59:17.929Z,85.30
2018-02-14T10:00:20.470Z,84.90
2018-02-14T10:01:22.988Z,85.20
2018-02-14T10:02:26.308Z,77.60
2018-02-14T10:03:28.820Z,77.50
2018-02-14T10:04:31.340Z,72.90
2018-02-14T10:05:33.864Z,67.70
2018-02-14T10:06:37.159Z,60.90
2018-02-14T10:07:39.733Z,60.90
2018-02-14T10:08:42.269Z,58.90
2018-02-14T10:09:44.781Z,55.10
2018-02-14T10:10:47.296Z,53.40
2018-02-14T10:11:49.818Z,52.10
2018-02-14T10:12:52.365Z,49.50
2018-02-14T10:13:54.891Z,47.60
2018-02-14T10:14:57.412Z,46.40
2018-02-14T10:15:59.949Z,44.60
2018-02-14T10:17:03.239Z,42.20
2018-02-14T10:18:05.834Z,42.20
2018-02-14T10:19:08.339Z,40.50
2018-02-14T10:20:10.898Z,39.70
2018-02-14T10:21:13.425Z,39.00
2018-02-14T10:22:15.956Z,39.30
2018-02-14T10:23:19.245Z,39.60
2018-02-14T10:24:22.569Z,40.10
2018-02-14T10:25:25.126Z,40.00
2018-02-14T10:26:27.659Z,40.70
2018-02-14T10:27:30.992Z,40.00
2018-02-14T10:28:34.288Z,40.60
2018-02-14T10:29:36.811Z,39.90
2018-02-14T10:30:39.339Z,40.30
2018-02-14T10:31:41.898Z,39.10
2018-02-14T10:32:44.529Z,38.10
2018-02-14T10:33:47.086Z,37.70
2018-02-14T10:34:49.610Z,37.70
2018-02-14T10:35:52.140Z,38.40
2018-02-14T10:36:54.665Z,37.80
2018-02-14T10:37:57.995Z,38.20
2018-02-14T10:39:00.562Z,38.30
2018-02-14T10:40:03.090Z,37.80
2018-02-14T10:41:05.665Z,38.20
2018-02-14T10:42:08.188Z,37.00
2018-02-14T10:43:10.760Z,36.70
2018-02-14T10:44:13.289Z,36.00
2018-02-14T10:45:15.816Z,35.80
2018-02-14T10:46:19.113Z,35.30
2018-02-14T10:47:21.640Z,35.30
2018-02-14T10:48:24.206Z,36.00
2018-02-14T10:49:26.732Z,37.10
2018-02-14T10:50:29.266Z,36.10
2018-02-14T10:51:31.793Z,35.80
2018-02-14T10:52:34.321Z,34.90
2018-02-14T10:53:36.889Z,35.10
2018-02-14T10:54:39.415Z,34.60
2018-02-14T10:55:42.706Z,36.60
2018-02-14T10:56:46.054Z,36.70
2018-02-14T10:57:48.576Z,36.70
2018-02-14T10:58:51.137Z,37.30
2018-02-14T10:59:53.666Z,36.90
2018-02-14T11:01:02.218Z,36.00
2018-02-14T11:02:10.763Z,36.50
2018-02-14T11:03:19.039Z,35.30
2018-02-14T11:04:22.418Z,36.50
2018-02-14T11:05:30.576Z,36.50
2018-02-14T11:06:36.035Z,36.80
2018-02-14T11:07:38.604Z,37.10
2018-02-14T11:08:41.125Z,36.60
2018-02-14T11:09:43.652Z,35.60
2018-02-14T11:10:46.178Z,35.80
2018-02-14T11:11:49.475Z,36.30
2018-02-14T11:12:52.804Z,37.00
2018-02-14T11:13:55.378Z,37.00
2018-02-14T11:14:57.958Z,36.10
2018-02-14T11:16:00.493Z,36.20
2018-02-14T11:17:03.027Z,35.70
2018-02-14T11:18:06.318Z,35.30
2018-02-14T11:19:08.896Z,35.30
2018-02-14T11:20:11.469Z,36.10
2018-02-14T11:21:13.991Z,36.90
2018-02-14T11:22:16.522Z,36.50
2018-02-14T11:23:19.046Z,36.70
2018-02-14T11:24:21.579Z,37.50
2018-02-14T11:25:24.142Z,35.80
2018-02-14T11:26:26.702Z,36.30
2018-02-14T11:27:30.731Z,35.30
2018-02-14T11:28:34.062Z,38.20
2018-02-14T11:29:36.576Z,39.00
2018-02-14T11:30:39.857Z,40.90
2018-02-14T11:31:42.373Z,40.90
2018-02-14T11:32:44.899Z,41.00
2018-02-14T11:33:48.225Z,41.80
2018-02-14T11:34:50.780Z,41.80
2018-02-14T11:35:53.300Z,40.50
2018-02-14T11:36:55.812Z,39.40
2018-02-14T11:37:58.332Z,41.90
2018-02-14T11:39:00.853Z,43.20
2018-02-14T11:40:03.417Z,43.30
2018-02-14T11:41:05.928Z,42.10
2018-02-14T11:42:08.445Z,44.90
2018-02-14T11:43:11.721Z,43.60
2018-02-14T11:44:14.285Z,43.50
2018-02-14T11:45:16.806Z,44.10
2018-02-14T11:46:19.331Z,45.10
2018-02-14T11:47:21.867Z,44.70
2018-02-14T11:48:25.171Z,44.50
2018-02-14T11:49:27.725Z,44.50
2018-02-14T11:50:30.249Z,40.90
2018-02-14T11:51:32.767Z,40.90
2018-02-14T11:52:35.340Z,42.50
2018-02-14T11:53:37.865Z,42.80
2018-02-14T11:54:41.145Z,44.00
2018-02-14T11:55:44.426Z,44.00
2018-02-14T11:56:46.993Z,44.10
2018-02-14T11:57:49.511Z,43.20
2018-02-14T11:58:52.021Z,40.80
2018-02-14T11:59:54.541Z,39.40
2018-02-14T12:00:57.065Z,40.80
2018-02-14T12:02:00.433Z,43.10
2018-02-14T12:03:02.952Z,43.10
2018-02-14T12:04:05.467Z,42.90
2018-02-14T12:05:07.985Z,41.10
2018-02-14T12:06:10.500Z,41.50
2018-02-14T12:07:13.069Z,41.30
2018-02-14T12:08:15.585Z,40.70
2018-02-14T12:09:18.873Z,40.60
2018-02-14T12:10:21.388Z,40.70
2018-02-14T12:11:23.912Z,38.80
2018-02-14T12:12:26.463Z,38.00
2018-02-14T12:13:29.024Z,36.20
2018-02-14T12:14:31.577Z,36.50
2018-02-14T12:15:34.102Z,36.90
2018-02-14T12:16:36.620Z,37.30
2018-02-14T12:17:39.146Z,36.10
2018-02-14T12:18:41.667Z,36.80
2018-02-14T12:19:44.236Z,36.70
2018-02-14T12:20:46.749Z,36.40
2018-02-14T12:21:50.053Z,35.30
2018-02-14T12:22:53.347Z,34.40
2018-02-14T12:23:55.872Z,34.40
2018-02-14T12:24:58.427Z,34.20
2018-02-14T12:26:01.000Z,33.50
2018-02-14T12:27:03.521Z,33.70
2018-02-14T12:28:06.053Z,33.00
2018-02-14T12:29:09.333Z,33.70
2018-02-14T12:30:12.621Z,35.10
2018-02-14T12:31:15.944Z,34.50
2018-02-14T12:32:18.473Z,34.50
2018-02-14T12:33:21.772Z,35.00
2018-02-14T12:34:24.306Z,35.00
2018-02-14T12:35:26.819Z,35.60
2018-02-14T12:36:29.397Z,33.00
2018-02-14T12:37:31.930Z,34.40
2018-02-14T12:38:35.222Z,32.50
2018-02-14T12:39:37.740Z,32.40
2018-02-14T12:40:40.297Z,32.30
2018-02-14T12:41:42.818Z,33.10
2018-02-14T12:42:45.350Z,33.70
2018-02-14T12:43:47.909Z,32.90
2018-02-14T12:44:50.433Z,32.30
2018-02-14T12:45:52.993Z,32.70
2018-02-14T12:46:55.518Z,31.50
2018-02-14T12:47:58.082Z,32.30
2018-02-14T12:49:00.610Z,33.70
2018-02-14T12:50:03.136Z,34.00
2018-02-14T12:51:06.435Z,33.50
2018-02-14T12:52:08.981Z,33.50
2018-02-14T12:53:12.305Z,34.20
2018-02-14T12:54:14.829Z,33.60
2018-02-14T12:55:18.116Z,32.80
2018-02-14T12:56:21.415Z,33.10
2018-02-14T12:57:23.941Z,33.10
2018-02-14T12:58:26.516Z,35.00
2018-02-14T12:59:29.042Z,35.80
2018-02-14T13:00:31.568Z,37.30
2018-02-14T13:01:34.857Z,36.70
2018-02-14T13:02:38.150Z,35.80
2018-02-14T13:03:40.741Z,35.70
2018-02-14T13:04:43.275Z,34.60
2018-02-14T13:05:46.571Z,34.00
2018-02-14T13:06:49.094Z,34.70
2018-02-14T13:07:51.618Z,34.30
2018-02-14T13:08:54.193Z,33.10
2018-02-14T13:09:56.717Z,31.70
2018-02-14T13:11:00.017Z,31.60
2018-02-14T13:12:02.581Z,31.70
2018-02-14T13:13:05.871Z,30.70
2018-02-14T13:14:08.441Z,30.70
2018-02-14T13:15:10.969Z,29.60
2018-02-14T13:16:13.502Z,30.00
2018-02-14T13:17:16.042Z,30.40
2018-02-14T13:18:18.568Z,30.70
2018-02-14T13:19:21.124Z,30.20
2018-02-14T13:20:23.646Z,31.70
2018-02-14T13:21:26.178Z,32.40
2018-02-14T13:22:29.464Z,32.60
2018-02-14T13:23:32.748Z,32.70
2018-02-14T13:24:36.069Z,32.60
2018-02-14T13:25:38.649Z,32.60
2018-02-14T13:26:41.189Z,32.50
2018-02-14T13:27:43.710Z,32.60
2018-02-14T13:28:46.238Z,33.50